Latest Weather Observations for Lombadina

IDW60801

Issued at 6:04 am WST Monday 29 August 2016 (issued every 30 minutes, with the page automatically refreshed every 10 minutes)

About weather observations | Map of weather stations | Latest weather observations for WA | Other Formats
Station Details ID: 503016 Name: LOMBADINA AIRSTRIP Lat: -16.52 Lon: 122.92 Height: 42.0 m
Data from the previous 72 hours. | See also: Recent months for locations in Western Australia
Date/Time
WST
Temp
°C
App
Temp
°C
Dew
Point
°C
Rel
Hum
%
Delta-T
°C
Wind Press
QNH
hPa
Press
MSL
hPa
Rain since
9am
mm
Dir  Spd
km/h
Gust
km/h
Spd
kts
Gust
kts
29/06:00am 22.4 27.0 21.7 96 0.5 CALM 0 0 0 0 1011.9 1011.7 4.0
29/05:30am 23.0 27.8 22.2 95 0.5 CALM 0 2 0 1 1011.5 1011.3 4.0
29/05:00am 23.2 27.9 22.0 93 0.8 CALM 0 4 0 2 1011.5 1011.3 4.0
29/04:30am 24.0 28.8 22.1 89 1.3 CALM 0 2 0 1 1011.3 1011.1 4.0
29/04:00am 24.1 28.9 22.2 89 1.3 CALM 0 0 0 0 1011.2 1011.0 4.0
29/03:30am 23.8 27.7 21.9 89 1.3 WSW 4 6 2 3 1011.4 1011.2 4.0
29/03:00am 23.7 28.0 22.0 90 1.1 W 2 6 1 3 1011.3 1011.1 4.0
29/02:30am 23.7 28.6 22.3 92 0.9 CALM 0 0 0 0 1011.3 1011.1 4.0
29/02:00am 23.8 28.6 22.1 90 1.1 CALM 0 4 0 2 1011.3 1011.1 4.0
29/01:30am 24.0 28.5 21.5 86 1.7 CALM 0 4 0 2 1011.5 1011.3 4.0
29/01:00am 24.2 28.3 21.5 85 1.8 W 2 7 1 4 1011.7 1011.5 4.0
29/12:30am 24.3 29.0 22.0 87 1.5 CALM 0 2 0 1 1011.9 1011.7 4.0
29/12:00am 24.3 29.1 22.2 88 1.4 CALM 0 2 0 1 1012.3 1012.1 4.0
 
Date/Time
WST
Temp
°C
App
Temp
°C
Dew
Point
°C
Rel
Hum
%
Delta-T
°C
Wind Press
QNH
hPa
Press
MSL
hPa
Rain since
9am
mm
Dir  Spd
km/h
Gust
km/h
Spd
kts
Gust
kts
28/11:30pm 24.0 28.9 22.3 90 1.1 CALM 0 0 0 0 1012.5 1012.3 4.0
28/11:00pm 23.7 28.7 22.5 93 0.8 CALM 0 0 0 0 1012.8 1012.6 4.0
28/10:30pm 23.6 28.4 22.8 95 0.5 SSW 2 6 1 3 1012.9 1012.7 4.0
28/10:00pm 23.3 28.1 22.8 97 0.3 SSW 2 6 1 3 1012.9 1012.7 4.0
28/09:30pm 23.1 27.0 22.6 97 0.3 SSW 6 9 3 5 1013.0 1012.8 4.0
28/09:00pm 23.3 28.1 22.8 97 0.3 SSW 2 4 1 2 1013.1 1012.9 4.0
28/08:30pm 23.2 27.1 22.5 96 0.5 S 6 11 3 6 1013.2 1013.0 4.0
28/08:07pm 23.3 26.8 22.8 97 0.3 SW 9 15 5 8 1013.3 1013.1 3.8
28/08:00pm 23.2 26.2 22.7 97 0.3 WSW 11 20 6 11 1013.4 1013.2 3.8
28/07:46pm 23.4 25.5 22.4 94 0.7 W 15 39 8 21 1013.3 1013.1 1.6
28/07:30pm 26.0 30.6 23.1 84 2.0 WSW 4 7 2 4 1012.7 1012.5 0.0
28/07:00pm 26.6 31.3 23.9 85 1.9 WNW 6 13 3 7 1012.3 1012.1 0.0
28/06:30pm 26.6 31.1 23.9 85 1.9 NW 7 13 4 7 1011.9 1011.7 0.0
28/06:00pm 26.7 31.3 23.8 84 2.0 WNW 6 11 3 6 1011.7 1011.5 0.0
28/05:34pm 26.8 31.3 23.7 83 2.1 WNW 6 13 3 7 1011.6 1011.4 0.0
28/05:30pm 26.9 31.3 23.8 83 2.1 WNW 7 13 4 7 1011.5 1011.3 0.0
28/05:16pm 26.9 30.9 23.8 83 2.1 WNW 9 15 5 8 1011.5 1011.3 0.0
28/05:00pm 26.8 30.8 23.7 83 2.1 NW 9 17 5 9 1011.5 1011.3 0.0
28/04:30pm 27.6 30.9 23.8 80 2.6 NW 13 20 7 11 1011.4 1011.2 0.0
28/04:00pm 27.0 29.7 23.5 81 2.4 NW 15 24 8 13 1011.1 1010.9 0.0
28/03:30pm 28.1 31.3 23.7 77 3.0 NW 13 20 7 11 1010.9 1010.7 0.0
28/03:00pm 28.7 31.4 23.4 73 3.6 NW 15 24 8 13 1010.7 1010.5 0.0
28/02:30pm 28.5 30.8 22.7 71 3.9 NNW 15 26 8 14 1010.7 1010.5 0.0
28/02:00pm 28.6 30.6 22.3 68 4.3 NNW 15 22 8 12 1010.9 1010.7 0.0
28/01:30pm 28.6 31.2 22.6 70 4.1 NW 13 20 7 11 1011.3 1011.1 0.0
28/01:00pm 28.2 30.5 22.7 72 3.7 NW 15 24 8 13 1011.7 1011.5 0.0
28/12:30pm 29.7 32.2 23.2 68 4.5 NW 15 26 8 14 1012.2 1012.0 0.0
28/12:00pm 28.6 30.4 22.6 70 4.1 NW 17 26 9 14 1012.7 1012.5 0.0
28/11:30am 29.2 30.6 21.9 64 4.9 NW 17 24 9 13 1013.1 1012.9 0.0
28/11:00am 28.2 30.7 22.4 71 3.9 NW 13 22 7 12 1013.5 1013.3 0.0
28/10:30am 28.6 30.0 21.1 64 5.0 NW 15 28 8 15 1014.0 1013.8 0.0
28/10:00am 28.1 30.1 22.3 70 3.9 NNW 15 26 8 14 1014.2 1014.0 0.0
28/09:30am 28.2 30.2 21.5 67 4.5 NW 13 20 7 11 1014.5 1014.3 0.0
28/09:00am 28.2 30.0 21.2 65 4.7 NNW 13 20 7 11 1014.5 1014.3 0.0
28/08:30am 27.6 30.7 22.1 72 3.7 NNW 9 17 5 9 1014.5 1014.3 0.0
28/08:00am 26.3 30.9 23.8 86 1.7 NW 6 9 3 5 1014.5 1014.3 0.0
28/07:30am 25.8 30.6 24.2 91 1.1 NW 6 9 3 5 1014.3 1014.1 0.0
28/07:00am 25.2 31.0 24.5 96 0.5 NW 2 6 1 3 1014.1 1013.9 0.0
28/06:30am 24.5 30.5 24.2 98 0.2 CALM 0 2 0 1 1013.9 1013.7 0.0
28/06:00am 24.1 29.5 23.8 98 0.2 W 2 6 1 3 1013.8 1013.6 0.0
28/05:30am 24.2 30.0 23.9 98 0.2 CALM 0 4 0 2 1013.5 1013.3 0.0
28/05:00am 24.3 30.1 24.0 98 0.2 CALM 0 4 0 2 1013.1 1012.9 0.0
28/04:30am 24.3 29.8 24.0 98 0.2 WNW 2 6 1 3 1013.1 1012.9 0.0
28/04:00am 23.9 28.8 23.7 99 0.1 WSW 4 7 2 4 1012.8 1012.6 0.0
28/03:30am 23.9 28.8 23.7 99 0.1 WSW 4 7 2 4 1012.7 1012.5 0.0
28/03:00am 23.8 28.7 23.6 99 0.1 WSW 4 7 2 4 1013.0 1012.8 0.0
28/02:30am 23.6 28.0 23.4 99 0.1 WSW 6 11 3 6 1013.2 1013.0 0.0
28/02:00am 23.9 28.6 23.9 100 0.0 W 6 9 3 5 1013.2 1013.0 0.0
28/01:30am 23.5 28.2 23.3 99 0.1 W 4 7 2 4 1013.1 1012.9 0.0
28/01:00am 23.7 28.6 23.7 100 0.0 W 4 9 2 5 1013.0 1012.8 0.0
28/12:30am 23.3 28.6 23.1 99 0.1 CALM 0 4 0 2 1013.3 1013.1 0.0
28/12:00am 23.2 28.1 23.0 99 0.1 WSW 2 6 1 3 1013.7 1013.5 0.0
 
Date/Time
WST
Temp
°C
App
Temp
°C
Dew
Point
°C
Rel
Hum
%
Delta-T
°C
Wind Press
QNH
hPa
Press
MSL
hPa
Rain since
9am
mm
Dir  Spd
km/h
Gust
km/h
Spd
kts
Gust
kts
27/11:30pm 23.3 27.5 23.1 99 0.1 WSW 6 7 3 4 1014.1 1013.9 0.0
27/11:00pm 22.6 27.0 22.1 97 0.3 WSW 2 4 1 2 1014.4 1014.2 0.0
27/10:30pm 23.4 28.1 22.6 95 0.5 WSW 2 6 1 3 1014.4 1014.2 0.0
27/10:00pm 24.5 29.1 23.1 92 0.9 N 4 7 2 4 1014.1 1013.9 0.0
27/09:30pm 24.4 29.3 23.0 92 0.9 NNW 2 6 1 3 1014.2 1014.0 0.0
27/09:00pm 24.5 29.7 22.9 91 1.1 CALM 0 6 0 3 1014.2 1014.0 0.0
27/08:30pm 24.6 28.7 23.0 91 1.1 NE 6 6 3 3 1014.2 1014.0 0.0
27/08:00pm 25.0 29.2 23.2 90 1.2 NE 6 7 3 4 1014.3 1014.1 0.0
27/07:30pm 25.6 31.0 23.3 87 1.6 CALM 0 0 0 0 1014.2 1014.0 0.0
27/07:00pm 25.8 31.0 23.5 87 1.6 NNW 2 4 1 2 1014.0 1013.8 0.0
27/06:30pm 25.8 30.5 23.3 86 1.7 NW 4 7 2 4 1013.6 1013.4 0.0
27/06:00pm 26.1 30.3 23.2 84 2.0 NW 6 9 3 5 1013.3 1013.1 0.0
27/05:30pm 26.4 30.0 23.1 82 2.2 NW 9 15 5 8 1013.1 1012.9 0.0
27/05:00pm 26.6 29.7 22.9 80 2.5 NW 11 17 6 9 1013.1 1012.9 0.0
27/04:30pm 27.0 29.7 22.8 78 2.9 NW 13 19 7 10 1012.9 1012.7 0.0
27/04:00pm 27.5 30.6 22.9 76 3.1 NW 11 19 6 10 1012.6 1012.4 0.0
27/03:30pm 27.7 30.6 23.1 76 3.1 NW 13 26 7 14 1012.6 1012.4 0.0
27/03:00pm 28.2 29.9 22.4 71 3.9 NW 17 26 9 14 1012.5 1012.3 0.0
27/02:30pm 28.9 30.5 22.2 67 4.5 NW 17 26 9 14 1012.5 1012.3 0.0
27/02:00pm 28.7 30.7 22.2 68 4.4 NW 15 26 8 14 1012.9 1012.7 0.0
27/01:30pm 29.0 30.7 21.7 64 4.9 NW 15 24 8 13 1013.2 1013.0 0.0
27/01:00pm 29.4 31.5 22.4 66 4.8 NW 15 26 8 14 1013.4 1013.2 0.0
27/12:30pm 28.5 30.0 22.0 68 4.4 WNW 17 30 9 16 1013.7 1013.5 0.0
27/12:00pm 28.0 29.4 21.8 69 4.2 WNW 17 26 9 14 1014.2 1014.0 0.0
27/11:30am 28.0 29.4 21.8 69 4.2 WNW 17 28 9 15 1014.5 1014.3 0.0
27/11:00am 28.4 29.8 21.9 68 4.4 WNW 17 26 9 14 1014.8 1014.6 0.0
27/10:30am 28.6 30.0 21.9 67 4.5 NW 17 24 9 13 1014.9 1014.7 0.0
27/10:00am 28.8 31.0 21.8 66 4.7 NNW 13 20 7 11 1015.2 1015.0 0.0
27/09:30am 28.6 30.5 20.6 62 5.3 NNE 11 19 6 10 1015.2 1015.0 0.0
27/09:00am 28.0 29.5 20.6 64 4.9 NNE 13 32 7 17 1014.9 1014.7 -
27/08:30am 27.2 27.9 21.2 69 4.0 NNE 19 32 10 17 1014.5 1014.3 -
27/08:00am 26.3 29.8 22.8 81 2.4 NNE 9 19 5 10 1014.5 1014.3 -
27/07:30am 25.1 29.3 23.2 89 1.3 NNE 6 11 3 6 1014.6 1014.4 -
27/07:00am 23.7 28.4 23.4 98 0.2 NE 4 7 2 4 1014.6 1014.4 -
27/06:45am 22.7 27.4 22.7 100 0.0 NE 2 6 1 3 1014.7 1014.5 -
27/06:30am 22.2 26.7 22.2 100 0.0 NE 2 4 1 2 1014.6 1014.4 -
27/06:16am 21.6 25.7 21.6 100 0.0 ENE 2 4 1 2 1014.5 1014.3 -
27/06:14am 21.5 25.6 21.5 100 0.0 ENE 2 6 1 3 1014.4 1014.2 -
27/06:00am 21.6 25.4 21.6 100 0.0 ENE 4 7 2 4 1014.3 1014.1 -
27/05:58am 21.3 24.9 21.3 100 0.0 ENE 4 6 2 3 1014.3 1014.1 -
27/05:56am 21.6 25.4 21.6 100 0.0 ENE 4 6 2 3 1014.2 1014.0 -
27/05:33am 21.7 25.5 21.7 100 0.0 ENE 4 6 2 3 1013.9 1013.7 -
27/05:30am 21.9 25.8 21.9 100 0.0 ENE 4 6 2 3 1013.9 1013.7 -
27/05:00am 22.2 26.3 22.2 100 0.0 NE 4 7 2 4 1013.5 1013.3 -
27/04:30am 21.6 25.4 21.6 100 0.0 NE 4 6 2 3 1013.2 1013.0 -
27/04:00am 21.2 24.8 21.2 100 0.0 NE 4 6 2 3 1013.0 1012.8 -
27/03:36am 21.1 24.2 21.1 100 0.0 ENE 6 6 3 3 1013.0 1012.8 -
27/03:30am 21.2 24.8 21.2 100 0.0 ENE 4 6 2 3 1013.0 1012.8 -
27/03:14am 21.4 25.4 21.4 100 0.0 ENE 2 6 1 3 1013.1 1012.9 -
27/03:00am 21.1 24.6 21.1 100 0.0 ENE 4 6 2 3 1013.1 1012.9 -
27/02:55am 21.2 24.8 21.2 100 0.0 ENE 4 6 2 3 1013.1 1012.9 -
27/02:30am 21.6 25.4 21.6 100 0.0 ENE 4 6 2 3 1012.9 1012.7 -
27/02:10am 21.6 25.4 21.6 100 0.0 ENE 4 7 2 4 1012.9 1012.7 -
27/02:00am 21.4 24.6 21.2 99 0.1 ENE 6 7 3 4 1012.9 1012.7 -
27/01:30am 21.2 24.8 21.2 100 0.0 ENE 4 6 2 3 1013.0 1012.8 -
27/01:00am 21.3 24.9 21.3 100 0.0 E 4 6 2 3 1013.3 1013.1 -
27/12:30am 21.3 25.2 21.1 99 0.1 E 2 6 1 3 1013.5 1013.3 -
27/12:00am 21.2 24.9 20.7 97 0.3 ENE 2 6 1 3 1013.6 1013.4 -
 
Date/Time
WST
Temp
°C
App
Temp
°C
Dew
Point
°C
Rel
Hum
%
Delta-T
°C
Wind Press
QNH
hPa
Press
MSL
hPa
Rain since
9am
mm
Dir  Spd
km/h
Gust
km/h
Spd
kts
Gust
kts
26/11:30pm 21.8 26.1 21.1 96 0.5 CALM 0 2 0 1 1013.8 1013.6 -
26/11:00pm 22.1 26.3 20.9 93 0.8 CALM 0 2 0 1 1014.1 1013.9 -
26/10:30pm 23.3 27.1 21.6 90 1.1 NE 4 6 2 3 1014.3 1014.1 -
26/10:00pm 23.5 27.0 21.8 90 1.1 NE 6 7 3 4 1014.2 1014.0 0.0
26/09:30pm 22.9 26.8 21.2 90 1.1 NE 2 6 1 3 1014.2 1014.0 0.0
26/09:00pm 22.9 26.4 19.5 81 2.2 CALM 0 2 0 1 1014.3 1014.1 0.0
26/08:30pm 23.9 27.6 20.8 83 2.0 ENE 2 7 1 4 1014.5 1014.3 0.0
26/08:00pm 24.1 28.0 21.2 84 1.9 NE 2 6 1 3 1014.4 1014.2 0.0
26/07:30pm 24.4 27.8 20.9 81 2.3 NE 4 7 2 4 1014.0 1013.8 0.0
26/07:00pm 24.7 28.5 20.2 76 2.9 CALM 0 4 0 2 1013.7 1013.5 0.0
26/06:30pm 25.2 28.9 20.0 73 3.4 CALM 0 0 0 0 1013.4 1013.2 0.0
26/06:00pm 25.9 28.4 19.8 69 4.0 NNE 6 11 3 6 1012.9 1012.7 0.0
26/05:30pm 26.7 27.6 18.3 60 5.3 NNE 11 17 6 9 1012.6 1012.4 0.0
26/05:00pm 28.0 27.9 16.0 48 7.4 N 11 20 6 11 1012.3 1012.1 0.0
26/04:30pm 28.6 27.7 13.7 40 8.9 NNE 11 19 6 10 1012.0 1011.8 0.0
26/04:00pm 29.3 28.2 13.1 37 9.6 N 11 20 6 11 1011.8 1011.6 0.0
26/03:30pm 29.7 29.9 14.7 40 9.1 ENE 7 15 4 8 1011.7 1011.5 0.0
26/03:00pm 29.0 28.8 14.8 42 8.6 E 9 17 5 9 1011.5 1011.3 0.0
26/02:30pm 28.5 27.8 14.3 41 8.6 E 11 20 6 11 1011.6 1011.4 0.0
26/02:00pm 28.1 27.2 13.6 41 8.6 E 11 20 6 11 1011.8 1011.6 0.0
26/01:30pm 28.1 27.0 13.2 39 8.8 E 11 20 6 11 1012.0 1011.8 0.0
26/01:00pm 28.2 26.4 13.3 40 8.8 E 15 26 8 14 1012.1 1011.9 0.0
26/12:30pm 28.7 26.0 7.3 26 11.5 ENE 11 20 6 11 1012.5 1012.3 0.0
26/12:00pm 28.1 25.0 7.4 27 11.1 ESE 13 24 7 13 1013.0 1012.8 0.0
26/11:30am 27.6 23.7 5.2 24 11.5 ESE 15 24 8 13 1013.4 1013.2 0.0
26/11:00am 26.9 22.6 5.2 25 11.1 ESE 17 28 9 15 1013.7 1013.5 0.0
26/10:30am 26.7 23.1 8.2 31 10.0 ESE 17 30 9 16 1013.9 1013.7 0.0
26/10:00am 25.6 21.8 7.7 32 9.5 ESE 17 32 9 17 1014.1 1013.9 0.0
26/09:30am 25.3 21.5 9.2 36 8.8 ESE 19 32 10 17 1014.3 1014.1 0.0
26/09:00am 24.4 20.5 8.8 37 8.4 SE 19 33 10 18 1014.4 1014.2 0.0
26/08:30am 24.1 20.4 8.1 36 8.5 SE 17 33 9 18 1014.3 1014.1 0.0
26/08:00am 23.3 20.4 8.2 38 8.0 SE 13 30 7 16 1014.2 1014.0 0.0
26/07:30am 22.1 18.6 7.1 38 7.7 SE 15 26 8 14 1014.1 1013.9 0.0
26/07:00am 20.4 18.2 6.4 40 7.0 SE 7 19 4 10 1013.8 1013.6 0.0
26/06:30am 19.1 15.9 5.2 40 6.8 SE 11 17 6 9 1013.6 1013.4 0.0

Other Formats:

Comma delimited format used in spreadsheet applications
http://www.bom.gov.au/fwo/IDW60801/IDW60801.99206.axf

JavaScript Object Notation format (JSON) in row-major order
http://www.bom.gov.au/fwo/IDW60801/IDW60801.99206.json